• Join FlightAware (Why Join?)
  • Login
  • US Flag 
11:33PM EDT


 

Airport Tracker/Info


-or-


 

Live Flight TrackerFlight Track Log ✈ CPZ5718 ✈ 14-Aug-2013 ✈ KALB - KMSP

Flight Track Log - Related Links

Times and Time Zones

All times are in EDT time to prevent confusion due to time zone crossing. See the CPZ5718 flight status page for this flight to view local times or setup timezone preferences in your user account.

Time Position Orientation Groundspeed Altitude Reporting Facility
EDT Latitude Longitude Course Direction KTS MPH feet Rate Location/Type
06:46AM 42.7714 -73.8092 281° West 151 174 1,300  Level Boston Center
06:48AM 42.8314 -73.8500 333° Northwest 218 251 3,300 1,860 Climbing Boston Center
06:49AM 42.8377 -74.3595 283° West  Level FlightAware Approximate
06:49AM 42.9181 -73.9172 330° Northwest 253 291 6,700  Level Boston Center
06:50AM 42.8615 -74.5020 283° West  Level FlightAware Approximate
06:50AM 42.9842 -73.9697 330° Northwest 266 306 8,900  Level Boston Center
06:51AM 42.8949 -74.6343 281° West  Level FlightAware Approximate
06:51AM 43.0522 -74.0256 329° Northwest 281 323 11,000  Level Boston Center
06:52AM 42.9146 -74.7781 281° West  Level FlightAware Approximate
06:52AM 43.1156 -74.1011 319° Northwest 297 342 12,200  Level Boston Center
06:53AM 43.1158 -74.2206 270° West 297 342 14,200 1,860 Climbing Boston Center
06:54AM 43.1222 -74.3403 274° West 316 364 15,900 1,500 Climbing Boston Center
06:55AM 43.1244 -74.4542 272° West 329 379 17,300 1,560 Climbing Boston Center
06:56AM 43.1264 -74.5767 271° West 334 384 19,000 1,920 Climbing Boston Center
06:57AM 43.1303 -74.7047 272° West 334 384 21,100 1,980 Climbing Boston Center
06:58AM 43.1339 -74.8300 272° West 334 384 23,100 1,740 Climbing Boston Center
06:59AM 43.1375 -74.9583 272° West 334 384 24,700 1,440 Climbing Boston Center
07:00AM 43.1406 -75.0978 272° West 328 377 26,100 1,260 Climbing Boston Center
07:01AM 43.1436 -75.2289 272° West 333 383 27,300 1,080 Climbing Boston Center
07:02AM 43.1444 -75.3656 271° West 345 397 28,300 960 Climbing Boston Center
07:03AM 43.1533 -75.4997 275° West 350 403 29,300 1,020 Climbing Boston Center
07:04AM 43.1644 -75.6314 277° West 355 409 30,400 900 Climbing Boston Center
07:05AM 43.1772 -75.7686 277° West 355 409 31,100 720 Climbing Boston Center
07:06AM 43.1878 -75.9058 276° West 360 414 31,900 720 Climbing Boston Center
07:07AM 43.1981 -76.0433 276° West 365 420 32,600 780 Climbing Boston Center
07:08AM 43.2081 -76.1808 276° West 365 420 33,500 660 Climbing Boston Center
07:09AM 43.2203 -76.3156 277° West 370 426 34,000 240 Climbing Boston Center
07:10AM 43.2300 -76.4586 275° West 370 426 34,000  Level Boston Center
07:11AM 43.2333 -76.5500 273° West 380 437 34,000  Level Toronto Center
07:12AM 43.2464 -76.6639 279° West 376 433 34,000  Level Cleveland Center
07:13AM 43.2575 -76.8144 276° West 392 451 34,000  Level Cleveland Center
07:14AM 43.2708 -76.9678 277° West 405 466 34,000  Level Cleveland Center
07:15AM 43.2878 -77.1178 279° West 405 466 34,000  Level Cleveland Center
07:16AM 43.3133 -77.2733 283° West 410 472 34,000  Level Cleveland Center
07:17AM 43.3383 -77.4292 282° West 410 472 34,000  Level Cleveland Center
07:18AM 43.3633 -77.5850 282° West 415 478 34,000  Level Cleveland Center
07:19AM 43.3883 -77.7408 282° West 415 478 34,000  Level Cleveland Center
07:20AM 43.4147 -77.8967 283° West 415 478 34,000  Level Cleveland Center
07:21AM 43.4392 -78.0531 282° West 420 483 34,000  Level Cleveland Center
07:22AM 43.4656 -78.2150 283° West 430 495 34,000  Level Cleveland Center
07:23AM 43.4894 -78.3742 282° West 430 495 34,000  Level Cleveland Center
07:24AM 43.5153 -78.5367 282° West 430 495 34,000  Level Cleveland Center
07:25AM 43.5500 -78.7667 282° West 430 495 34,000  Level Toronto Center
07:26AM 43.5667 -78.9167 279° West 430 495 34,000  Level Toronto Center
07:27AM 43.5833 -79.0833 278° West 430 495 34,000  Level Toronto Center
07:28AM 43.6167 -79.2333 287° West 440 506 34,000  Level Toronto Center
07:29AM 43.6333 -79.4000 278° West 440 506 34,000  Level Toronto Center
07:30AM 43.6667 -79.5667 286° West 440 506 34,000  Level Toronto Center
07:31AM 43.6833 -79.7333 278° West 440 506 34,000  Level Toronto Center
07:32AM 43.7000 -79.9167 277° West 440 506 34,000  Level Toronto Center
07:33AM 43.7333 -80.0667 287° West 440 506 34,000  Level Toronto Center
07:34AM 43.7500 -80.2333 278° West 440 506 34,000  Level Toronto Center
07:35AM 43.7833 -80.4000 286° West 440 506 34,000  Level Toronto Center
07:36AM 43.8000 -80.5500 279° West 440 506 34,000  Level Toronto Center
07:37AM 43.8167 -80.7500 277° West 440 506 34,000  Level Toronto Center
07:38AM 43.8333 -80.9000 279° West 440 506 34,000  Level Toronto Center
07:39AM 43.8500 -81.0667 278° West 440 506 34,000  Level Toronto Center
07:40AM 43.8833 -81.2333 286° West 440 506 34,000  Level Toronto Center
07:41AM 43.9000 -81.3833 279° West 440 506 34,000  Level Toronto Center
07:42AM 43.9167 -81.5833 277° West 440 506 34,000  Level Toronto Center
07:43AM 43.9500 -81.7333 287° West 440 506 34,000  Level Toronto Center
07:44AM 43.9667 -81.9000 278° West 440 506 34,000  Level Toronto Center
07:45AM 43.9833 -82.0667 278° West 440 506 34,000  Level Toronto Center
07:46AM 44.0000 -82.2500 277° West 440 506 34,000  Level Toronto Center
07:47AM 44.0314 -82.4089 285° West 440 506 34,000  Level Minneapolis Center
07:48AM 44.0494 -82.5756 279° West 439 505 34,000  Level Minneapolis Center
07:49AM 44.0692 -82.7425 279° West 439 505 34,000  Level Minneapolis Center
07:50AM 44.0867 -82.9117 278° West 443 510 34,000  Level Minneapolis Center
07:51AM 44.1067 -83.0794 279° West 443 510 34,000  Level Minneapolis Center
07:52AM 44.1247 -83.2481 279° West 442 509 34,000  Level Minneapolis Center
07:53AM 44.1433 -83.4161 279° West 441 507 34,000  Level Minneapolis Center
07:54AM 44.1667 -83.6186 279° West 443 510 34,000  Level Minneapolis Center
07:55AM 44.1833 -83.7867 278° West 440 506 34,000  Level Minneapolis Center
07:56AM 44.2008 -83.9550 278° West 441 507 34,000  Level Minneapolis Center
07:57AM 44.2178 -84.1253 278° West 443 510 34,000  Level Minneapolis Center
07:58AM 44.2361 -84.2972 279° West 448 516 34,000  Level Minneapolis Center
07:59AM 44.2531 -84.4689 278° West 449 517 34,000  Level Minneapolis Center
08:00AM 44.2700 -84.6442 278° West 456 525 34,000  Level Minneapolis Center
08:01AM 44.2867 -84.8172 278° West 453 521 34,000  Level Minneapolis Center
08:02AM 44.3064 -85.0264 278° West 454 522 34,000  Level Minneapolis Center
08:03AM 44.3225 -85.1981 278° West 448 516 34,000  Level Minneapolis Center
08:04AM 44.3386 -85.3708 277° West 449 517 34,000  Level Minneapolis Center
08:05AM 44.3539 -85.5417 277° West 444 511 34,000  Level Minneapolis Center
08:06AM 44.3681 -85.7131 277° West 443 510 34,000  Level Minneapolis Center
08:07AM 44.3831 -85.8825 277° West 440 506 34,000  Level Minneapolis Center
08:08AM 44.3981 -86.0564 277° West 445 512 34,000  Level Minneapolis Center
08:10AM 44.4119 -86.2306 276° West 447 514 34,000  Level Minneapolis Center
08:11AM 44.4267 -86.4039 277° West 446 513 34,000  Level Minneapolis Center
08:12AM 44.4392 -86.5764 276° West 445 512 34,000  Level Minneapolis Center
08:13AM 44.4522 -86.7503 276° West 447 514 34,000  Level Minneapolis Center
08:14AM 44.4675 -86.9592 276° West 449 517 34,000  Level Minneapolis Center
08:15AM 44.4817 -87.1333 277° West 449 517 34,000  Level Minneapolis Center
08:16AM 44.4950 -87.3072 276° West 449 517 34,000  Level Minneapolis Center
08:17AM 44.5064 -87.4781 275° West 445 512 34,000  Level Minneapolis Center
08:18AM 44.5186 -87.6497 276° West 443 510 34,000  Level Minneapolis Center
08:19AM 44.5306 -87.8236 276° West 446 513 34,000  Level Minneapolis Center
08:20AM 44.5419 -87.9956 275° West 445 512 34,000  Level Minneapolis Center
08:21AM 44.5533 -88.1692 275° West 448 516 34,000  Level Minneapolis Center
08:22AM 44.5739 -88.3561 279° West 448 516 34,000  Level Minneapolis Center
08:23AM 44.5939 -88.5286 279° West 445 512 34,000  Level Minneapolis Center
08:24AM 44.6131 -88.7028 279° West 453 521 34,000  Level Minneapolis Center
08:25AM 44.6375 -88.9100 279° West 451 519 34,000  Level Minneapolis Center
08:26AM 44.6564 -89.0819 279° West 445 512 34,000  Level Minneapolis Center
08:27AM 44.6756 -89.2564 279° West 450 518 34,000  Level Minneapolis Center
08:28AM 44.6947 -89.4308 279° West 452 520 34,000 -120 Level Minneapolis Center
08:29AM 44.7133 -89.6064 279° West 453 521 33,800 -540 Descending Minneapolis Center
08:30AM 44.7328 -89.7833 279° West 457 526 32,900 -840 Descending Minneapolis Center
08:31AM 44.7519 -89.9647 279° West 465 535 32,100 -480 Descending Minneapolis Center
08:32AM 44.7703 -90.1453 278° West 466 536 32,000 -60 Descending Minneapolis Center
08:33AM 44.7914 -90.3583 278° West 460 529 32,000  Level Minneapolis Center
08:34AM 44.8086 -90.5303 278° West 455 524 32,000 -180 Level Minneapolis Center
08:35AM 44.8247 -90.7036 278° West 449 517 31,700 -660 Descending Minneapolis Center
08:36AM 44.8422 -90.8806 278° West 455 524 30,700 -1,020 Descending Minneapolis Center
08:37AM 44.8564 -91.0494 277° West 443 510 29,600 -1,020 Descending Minneapolis Center
08:38AM 44.8736 -91.2206 278° West 441 507 28,600 -1,740 Descending Minneapolis Center
08:39AM 44.8922 -91.4219 278° West 436 502 26,100 -2,580 Descending Minneapolis Center
08:40AM 44.9150 -91.5778 282° West 416 479 23,300 -2,640 Descending Minneapolis Center
08:41AM 44.9425 -91.7242 285° West 396 456 20,700 -2,460 Descending Minneapolis Center
08:42AM 44.9694 -91.8647 285° West 381 438 18,300 -2,340 Descending Minneapolis Center
08:43AM 44.9956 -92.0000 285° West 361 415 15,900 -2,280 Descending Minneapolis Center
08:45AM 45.0197 -92.1319 285° West 350 403 13,600 -2,340 Descending Minneapolis Center
08:46AM 45.0469 -92.2847 284° West 336 387 11,100 -1,320 Descending Minneapolis Center
08:47AM 45.0103 -92.4033 246° West 340 391 10,900 -540 Descending Minneapolis Center
08:48AM 44.9656 -92.5014 237° Southwest 301 346 10,000 -960 Descending Minneapolis Center
08:49AM 44.9242 -92.5967 238° Southwest 285 328 9,000 -1,020 Descending Minneapolis Center
08:50AM 44.8817 -92.6906 237° Southwest 285 328 8,000 -1,020 Descending Minneapolis Center
08:51AM 44.8411 -92.7817 238° Southwest 277 319 7,000 -1,140 Descending Minneapolis Center
08:52AM 44.8119 -92.8761 247° West 269 310 5,700 -1,620 Descending Minneapolis Center
08:53AM 44.8119 -92.9953 270° West 255 293 3,700 -1,440 Descending Minneapolis Center
08:54AM 44.8292 -93.0750 287° West 217 250 2,800 -900 Descending Minneapolis Center
08:55AM 44.8542 -93.1319 302° West 175 201 1,900 -780 Descending Minneapolis Center
08:56AM 44.8733 -93.1756 302° West 134 154 1,200 -720 Descending Minneapolis Center